createdAt,value
2022-11-19T00:02:16.268Z,44.6
2022-11-19T00:07:53.987Z,44.5
2022-11-19T00:13:37.536Z,44.4
2022-11-19T00:18:44.329Z,44.4
2022-11-19T00:24:22.415Z,44.3
2022-11-19T00:29:50.752Z,44.3
2022-11-19T00:35:52.982Z,44.2
2022-11-19T00:41:00.426Z,44.1
2022-11-19T00:46:38.696Z,44.1
2022-11-19T00:52:16.876Z,44
2022-11-19T00:57:38.720Z,43.9
2022-11-19T01:03:16.997Z,43.9
2022-11-19T01:08:40.006Z,43.8
2022-11-19T01:14:17.366Z,43.8
2022-11-19T01:19:55.184Z,43.7
2022-11-19T01:25:33.493Z,43.7
2022-11-19T01:30:59.782Z,43.6
2022-11-19T01:36:21.939Z,43.6
2022-11-19T01:41:59.856Z,43.5
2022-11-19T01:47:21.670Z,43.4
2022-11-19T01:52:59.529Z,43.4
2022-11-19T01:58:37.562Z,43.3
2022-11-19T02:04:15.693Z,43.9
2022-11-19T02:09:38.511Z,44.9
2022-11-19T02:15:16.061Z,44.9
2022-11-19T02:20:53.073Z,46.1
2022-11-19T02:26:36.001Z,46.4
2022-11-19T02:31:57.456Z,46.6
2022-11-19T02:37:34.318Z,46.8
2022-11-19T02:43:12.610Z,47
2022-11-19T02:48:19.658Z,47.1
2022-11-19T02:53:56.712Z,47.2
2022-11-19T02:59:18.990Z,47.3
2022-11-19T03:04:57.927Z,47.4
2022-11-19T03:10:19.379Z,47.3
2022-11-19T03:15:57.081Z,47.4
2022-11-19T03:21:18.818Z,47.4
2022-11-19T03:26:40.595Z,47.3
2022-11-19T03:32:03.046Z,47.4
2022-11-19T03:37:40.597Z,47.4
2022-11-19T03:43:18.859Z,47.3
2022-11-19T03:48:56.031Z,47.3
2022-11-19T03:54:35.626Z,47.2
2022-11-19T04:00:18.762Z,47.1
2022-11-19T04:05:56.515Z,47.1
2022-11-19T04:11:34.466Z,46.9
2022-11-19T04:17:11.405Z,46.9
2022-11-19T04:22:18.108Z,46.9
2022-11-19T04:27:40.620Z,46.8
2022-11-19T04:33:02.777Z,46.8
2022-11-19T04:38:24.392Z,46.7
2022-11-19T04:43:46.967Z,46.6
2022-11-19T04:49:09.079Z,46.6
2022-11-19T04:54:53.081Z,46.4
2022-11-19T05:00:31.988Z,46.4
2022-11-19T05:05:54.281Z,46.3
2022-11-19T05:11:17.485Z,46.3
2022-11-19T05:16:59.746Z,46.2
2022-11-19T05:22:37.021Z,46.1
2022-11-19T05:28:14.659Z,46
2022-11-19T05:34:05.475Z,45.9
2022-11-19T05:39:42.985Z,45.9
2022-11-19T05:45:20.378Z,45.8
2022-11-19T05:50:58.912Z,45.8
2022-11-19T05:56:36.853Z,45.7
2022-11-19T06:02:15.404Z,45.6
2022-11-19T06:07:53.672Z,45.6
2022-11-19T06:13:35.132Z,45.3
2022-11-19T06:19:13.084Z,45.1
2022-11-19T06:24:37.448Z,44.9
2022-11-19T06:30:15.626Z,44.8
2022-11-19T06:35:53.603Z,44.7
2022-11-19T06:41:38.519Z,44.6
2022-11-19T06:47:21.446Z,44.5
2022-11-19T06:53:00.637Z,44.4
2022-11-19T06:58:40.669Z,44.3
2022-11-19T07:04:18.687Z,44.3
2022-11-19T07:09:59.048Z,48.7
2022-11-19T07:15:37.839Z,54.7
2022-11-19T07:21:00.586Z,52.2
2022-11-19T07:26:40.543Z,50.6
2022-11-19T07:32:18.597Z,55.9
2022-11-19T07:37:57.287Z,56
2022-11-19T07:43:41.608Z,56
2022-11-19T07:49:24.925Z,56.1
2022-11-19T07:54:52.484Z,56.3
2022-11-19T08:00:21.610Z,57.2
2022-11-19T08:06:04.988Z,57.9
2022-11-19T08:11:42.586Z,58.6
2022-11-19T08:17:20.582Z,59.2
2022-11-19T08:23:03.302Z,59.5
2022-11-19T08:28:41.087Z,60.1
2022-11-19T08:34:22.228Z,60.6
2022-11-19T08:40:01.562Z,61.2
2022-11-19T08:45:39.321Z,61.6
2022-11-19T08:51:17.107Z,61.8
2022-11-19T08:56:55.121Z,62.6
2022-11-19T09:02:36.457Z,63.1
2022-11-19T09:08:20.999Z,63.6
2022-11-19T09:13:43.549Z,63.7
2022-11-19T09:19:26.078Z,64.3
2022-11-19T09:25:03.495Z,64.8
2022-11-19T09:30:46.988Z,65.3
2022-11-19T09:36:24.715Z,65.6
2022-11-19T09:42:02.804Z,66.1
2022-11-19T09:47:46.982Z,66.4
2022-11-19T09:53:24.344Z,66.1
2022-11-19T09:59:02.398Z,66.1
2022-11-19T10:04:25.427Z,66
2022-11-19T10:10:06.529Z,66.5
2022-11-19T10:15:36.166Z,66.7
2022-11-19T10:21:15.081Z,67.1
2022-11-19T10:26:54.354Z,67.8
2022-11-19T10:32:32.172Z,67.1
2022-11-19T10:38:10.451Z,67.9
2022-11-19T10:43:56.687Z,67.9
2022-11-19T10:49:34.972Z,67.8
2022-11-19T10:55:16.176Z,67.6
2022-11-19T11:00:43.558Z,67.1
2022-11-19T11:06:08.735Z,66.3
2022-11-19T11:11:48.592Z,65.7
2022-11-19T11:17:27.568Z,65.9
2022-11-19T11:23:05.699Z,67.1
2022-11-19T11:28:47.927Z,67.8
2022-11-19T11:34:31.044Z,68.2
2022-11-19T11:39:58.460Z,67.6
2022-11-19T11:45:40.928Z,66.6
2022-11-19T11:51:25.519Z,65.9
2022-11-19T11:56:47.985Z,64.9
2022-11-19T12:01:54.979Z,63
2022-11-19T12:07:31.077Z,60.5
2022-11-19T12:13:14.829Z,58.1
2022-11-19T12:18:58.093Z,56.8
2022-11-19T12:24:21.068Z,55.8
2022-11-19T12:29:57.952Z,54.9
2022-11-19T12:35:35.701Z,54.3
2022-11-19T12:41:15.227Z,53.6
2022-11-19T12:46:52.888Z,53.1
2022-11-19T12:52:32.857Z,52.6
2022-11-19T12:58:16.379Z,52.1
2022-11-19T13:03:54.583Z,51.8
2022-11-19T13:09:20.827Z,51.2
2022-11-19T13:14:27.748Z,50.6
2022-11-19T13:20:05.664Z,50.2
2022-11-19T13:25:43.437Z,49.8
2022-11-19T13:31:21.307Z,49.4
2022-11-19T13:36:59.781Z,49
2022-11-19T13:42:42.464Z,48.1
2022-11-19T13:48:48.024Z,47.6
2022-11-19T13:54:30.010Z,47.4
2022-11-19T14:00:07.691Z,47.3
2022-11-19T14:05:45.332Z,47.1
2022-11-19T14:11:28.041Z,46.9
2022-11-19T14:16:50.632Z,46.7
2022-11-19T14:22:02.176Z,46.5
2022-11-19T14:27:25.573Z,46.3
2022-11-19T14:33:03.790Z,46.1
2022-11-19T14:38:41.860Z,45.9
2022-11-19T14:44:24.207Z,45.8
2022-11-19T14:49:47.813Z,45.7
2022-11-19T14:55:26.097Z,45.5
2022-11-19T15:01:04.139Z,45.3
2022-11-19T15:06:42.307Z,45.2
2022-11-19T15:12:26.290Z,45.1
2022-11-19T15:17:48.380Z,44.9
2022-11-19T15:23:09.973Z,44.8
2022-11-19T15:28:38.856Z,44.7
2022-11-19T15:34:03.051Z,44.5
2022-11-19T15:40:01.332Z,44.4
2022-11-19T15:45:24.028Z,44.3
2022-11-19T15:50:31.019Z,44.2
2022-11-19T15:55:59.392Z,44.1
2022-11-19T16:01:22.465Z,43.9
2022-11-19T16:06:45.943Z,43.8
2022-11-19T16:12:10.198Z,43.8
2022-11-19T16:17:35.870Z,43.7
2022-11-19T16:23:01.363Z,43.4
2022-11-19T16:28:43.437Z,39.3
2022-11-19T16:34:22.217Z,33.6
2022-11-19T16:40:06.524Z,31.4
2022-11-19T16:45:29.890Z,30.3
2022-11-19T16:51:07.374Z,29.5
2022-11-19T16:56:33.544Z,28.9
2022-11-19T17:02:17.512Z,28.4
2022-11-19T17:07:55.614Z,28.1
2022-11-19T17:19:01.937Z,27.5
2022-11-19T17:24:44.536Z,27.3
2022-11-19T17:30:06.433Z,27.1
2022-11-19T17:35:49.021Z,26.9
2022-11-19T17:41:11.387Z,26.8
2022-11-19T17:46:34.579Z,26.7
2022-11-19T17:51:53.690Z,26.6
2022-11-19T17:57:31.257Z,26.6
2022-11-19T18:03:11.160Z,26.5
2022-11-19T18:08:50.324Z,26.4
2022-11-19T18:13:42.497Z,26.4
2022-11-19T18:19:06.136Z,26.4
2022-11-19T18:24:46.262Z,26.4
2022-11-19T18:30:29.011Z,26.4
2022-11-19T18:35:52.749Z,26.4
2022-11-19T18:41:17.292Z,26.4
2022-11-19T18:47:02.425Z,26.4
2022-11-19T18:52:43.412Z,26.4
2022-11-19T18:58:22.997Z,26.4
2022-11-19T19:03:38.049Z,26.4
2022-11-19T19:09:08.344Z,26.4
2022-11-19T19:14:32.797Z,26.4
2022-11-19T19:20:16.276Z,26.4
2022-11-19T19:25:47.628Z,26.5
2022-11-19T19:31:31.634Z,26.5
2022-11-19T19:36:55.915Z,26.5
2022-11-19T19:42:39.903Z,26.5
2022-11-19T19:48:20.837Z,26.5
2022-11-19T19:54:00.571Z,26.6
2022-11-19T19:59:40.947Z,26.6
2022-11-19T20:05:05.556Z,26.6
2022-11-19T20:10:48.824Z,26.6
2022-11-19T20:16:17.517Z,26.6
2022-11-19T20:21:56.872Z,26.6
2022-11-19T20:27:37.366Z,26.7
2022-11-19T20:33:17.236Z,26.6
2022-11-19T20:38:39.732Z,26.7
2022-11-19T20:44:24.471Z,26.7
2022-11-19T20:50:06.375Z,26.8
2022-11-19T20:56:03.721Z,26.8
2022-11-19T21:01:30.951Z,26.8
2022-11-19T21:07:09.338Z,26.8
2022-11-19T21:12:37.539Z,26.8
2022-11-19T21:17:59.505Z,26.8
2022-11-19T21:23:41.166Z,26.8
2022-11-19T21:29:24.136Z,26.8
2022-11-19T21:35:02.802Z,26.9
2022-11-19T21:40:43.101Z,26.9
2022-11-19T21:46:21.812Z,26.9
2022-11-19T21:51:59.898Z,26.9
2022-11-19T21:57:43.097Z,26.9
2022-11-19T22:03:21.000Z,26.9
2022-11-19T22:08:58.954Z,26.9
2022-11-19T22:14:27.161Z,26.9
2022-11-19T22:19:49.612Z,27
2022-11-19T22:25:27.927Z,27
2022-11-19T22:31:11.725Z,27
2022-11-19T22:36:55.944Z,27
2022-11-19T22:42:18.054Z,27
2022-11-19T22:47:09.567Z,27
2022-11-19T22:52:47.643Z,27.1
2022-11-19T22:57:55.077Z,26.6
2022-11-19T23:03:18.428Z,26.1
2022-11-19T23:09:01.228Z,25.7
2022-11-19T23:14:24.243Z,25.4
2022-11-19T23:20:04.705Z,25.3
2022-11-19T23:25:43.060Z,25.2
2022-11-19T23:31:20.615Z,25.1
2022-11-19T23:37:04.610Z,25.1
2022-11-19T23:42:27.903Z,25.1
2022-11-19T23:48:10.705Z,25.1
2022-11-19T23:53:48.672Z,25.1
2022-11-19T23:59:27.765Z,25
